createdAt,value
2023-05-15T00:01:24.963Z,100359.31
2023-05-15T00:03:52.293Z,100355.59
2023-05-15T00:06:19.600Z,100350.56
2023-05-15T00:08:46.390Z,100343.81
2023-05-15T00:11:13.091Z,100341.13
2023-05-15T00:13:39.692Z,100337.41
2023-05-15T00:16:10.046Z,100329.13
2023-05-15T00:18:36.796Z,100341.44
2023-05-15T00:21:03.553Z,100329.13
2023-05-15T00:23:30.159Z,100322.56
2023-05-15T00:25:56.806Z,100325.09
2023-05-15T00:28:23.484Z,100315.16
2023-05-15T00:30:50.143Z,100319.19
2023-05-15T00:33:16.947Z,100313.47
2023-05-15T00:35:43.853Z,100312.94
2023-05-15T00:38:11.001Z,100315.31
2023-05-15T00:40:38.670Z,100324.06
2023-05-15T00:43:06.716Z,100321.88
2023-05-15T00:45:34.578Z,100319.34
2023-05-15T00:48:01.854Z,100324.06
2023-05-15T00:50:29.884Z,100315.78
2023-05-15T00:52:57.200Z,100323.88
2023-05-15T00:55:26.585Z,100323.50
2023-05-15T00:57:53.879Z,100331.06
2023-05-15T01:04:21.987Z,100324.16
2023-05-15T01:06:54.054Z,100327.22
2023-05-15T01:09:23.673Z,100318.94
2023-05-15T01:11:53.532Z,100325.88
2023-05-15T01:14:20.128Z,100314.59
2023-05-15T01:16:46.871Z,100313.72
2023-05-15T01:19:13.613Z,100315.94
2023-05-15T01:21:52.428Z,100313.38
2023-05-15T01:25:02.411Z,100315.38
2023-05-15T01:27:34.630Z,100317.09
2023-05-15T01:30:22.205Z,100309.50
2023-05-15T01:33:17.161Z,100314.03
2023-05-15T01:36:09.843Z,100313.88
2023-05-15T01:38:56.062Z,100311.84
2023-05-15T01:41:29.587Z,100310.31
2023-05-15T01:44:09.119Z,100303.22
2023-05-15T01:46:39.648Z,100307.25
2023-05-15T01:49:09.810Z,100306.41
2023-05-15T01:51:38.092Z,100308.06
2023-05-15T01:54:07.116Z,100310.09
2023-05-15T01:56:35.055Z,100310.56
2023-05-15T01:59:04.489Z,100298.31
2023-05-15T02:01:32.897Z,100310.25
2023-05-15T02:04:01.534Z,100302.84
2023-05-15T02:06:29.789Z,100291.38
2023-05-15T02:08:58.703Z,100298.44
2023-05-15T02:11:25.551Z,100300.66
2023-05-15T02:13:54.895Z,100309.22
2023-05-15T02:16:21.768Z,100303.84
2023-05-15T02:18:49.416Z,100308.06
2023-05-15T02:21:16.233Z,100303.88
2023-05-15T02:23:42.797Z,100304.56
2023-05-15T02:26:43.879Z,100314.50
2023-05-15T02:29:23.691Z,100312.97
2023-05-15T02:32:01.679Z,100308.28
2023-05-15T02:34:39.491Z,100307.78
2023-05-15T02:37:10.804Z,100305.22
2023-05-15T02:39:38.808Z,100301.16
2023-05-15T02:42:06.593Z,100308.91
2023-05-15T02:44:35.883Z,100305.19
2023-05-15T02:47:03.867Z,100306.03
2023-05-15T02:49:30.373Z,100302.16
2023-05-15T02:51:56.990Z,100298.97
2023-05-15T02:54:23.822Z,100293.25
2023-05-15T02:56:50.413Z,100292.41
2023-05-15T02:59:20.016Z,100293.06
2023-05-15T03:01:47.417Z,100292.91
2023-05-15T03:04:17.141Z,100298.44
2023-05-15T03:06:43.838Z,100298.28
2023-05-15T03:09:10.502Z,100297.41
2023-05-15T03:11:37.007Z,100299.25
2023-05-15T03:14:03.741Z,100288.88
2023-05-15T03:16:30.474Z,100294.94
2023-05-15T03:18:57.130Z,100297.44
2023-05-15T03:21:23.724Z,100295.94
2023-05-15T03:23:50.272Z,100300.50
2023-05-15T03:26:16.928Z,100296.44
2023-05-15T03:28:43.631Z,100305.56
2023-05-15T03:31:10.433Z,100305.41
2023-05-15T03:33:38.009Z,100295.66
2023-05-15T03:36:05.312Z,100298.50
2023-05-15T03:38:32.269Z,100297.19
2023-05-15T03:40:58.849Z,100303.91
2023-05-15T03:43:25.483Z,100294.84
2023-05-15T03:45:52.027Z,100279.53
2023-05-15T03:48:18.625Z,100291.13
2023-05-15T03:50:46.003Z,100300.53
2023-05-15T03:53:12.722Z,100289.06
2023-05-15T03:55:39.439Z,100294.94
2023-05-15T03:58:05.995Z,100297.81
2023-05-15T04:00:32.582Z,100297.00
2023-05-15T04:02:59.273Z,100291.75
2023-05-15T04:05:26.324Z,100293.28
2023-05-15T04:07:53.191Z,100292.44
2023-05-15T04:10:20.172Z,100295.13
2023-05-15T04:12:47.777Z,100286.69
2023-05-15T04:15:15.567Z,100297.28
2023-05-15T04:17:43.365Z,100294.75
2023-05-15T04:20:11.360Z,100306.53
2023-05-15T04:22:38.063Z,100304.22
2023-05-15T04:25:05.019Z,100309.94
2023-05-15T04:27:31.697Z,100306.75
2023-05-15T04:29:58.251Z,100305.09
2023-05-15T04:32:24.830Z,100311.84
2023-05-15T04:34:51.391Z,100314.00
2023-05-15T04:37:17.989Z,100316.00
2023-05-15T04:39:44.659Z,100320.03
2023-05-15T04:42:11.550Z,100321.06
2023-05-15T04:44:38.126Z,100314.88
2023-05-15T04:47:05.053Z,100313.72
2023-05-15T04:49:31.584Z,100314.41
2023-05-15T04:51:58.180Z,100318.50
2023-05-15T04:54:24.898Z,100309.09
2023-05-15T04:56:51.441Z,100303.19
2023-05-15T04:59:18.274Z,100313.13
2023-05-15T05:01:45.220Z,100306.75
2023-05-15T05:04:11.909Z,100321.56
2023-05-15T05:06:38.548Z,100320.03
2023-05-15T05:09:05.143Z,100316.00
2023-05-15T05:11:31.846Z,100312.78
2023-05-15T05:13:58.497Z,100318.72
2023-05-15T05:16:25.429Z,100316.91
2023-05-15T05:18:52.150Z,100312.06
2023-05-15T05:21:18.810Z,100310.13
2023-05-15T05:23:45.809Z,100323.56
2023-05-15T05:26:12.488Z,100323.13
2023-05-15T05:28:39.188Z,100327.09
2023-05-15T05:31:06.100Z,100331.25
2023-05-15T05:33:32.744Z,100329.09
2023-05-15T05:35:59.340Z,100334.75
2023-05-15T05:38:27.823Z,100335.69
2023-05-15T05:40:54.406Z,100331.97
2023-05-15T05:43:20.966Z,100336.31
2023-05-15T05:45:48.014Z,100327.50
2023-05-15T05:48:14.601Z,100324.00
2023-05-15T05:50:41.204Z,100323.38
2023-05-15T05:53:07.803Z,100318.28
2023-05-15T05:55:34.451Z,100311.19
2023-05-15T05:58:02.169Z,100318.28
2023-05-15T06:00:29.070Z,100314.06
2023-05-15T06:02:58.778Z,100313.56
2023-05-15T06:05:28.573Z,100325.31
2023-05-15T06:07:55.552Z,100313.09
2023-05-15T06:10:22.898Z,100312.75
2023-05-15T06:12:49.632Z,100309.31
2023-05-15T06:15:17.095Z,100317.69
2023-05-15T06:17:43.795Z,100308.81
2023-05-15T06:20:10.688Z,100311.50
2023-05-15T06:22:37.719Z,100313.56
2023-05-15T06:25:05.969Z,100325.38
2023-05-15T06:27:33.426Z,100317.81
2023-05-15T06:29:59.996Z,100315.59
2023-05-15T06:32:26.648Z,100325.50
2023-05-15T06:34:53.485Z,100323.03
2023-05-15T06:37:20.212Z,100326.59
2023-05-15T06:39:46.776Z,100321.44
2023-05-15T06:42:15.183Z,100324.72
2023-05-15T06:44:41.592Z,100327.81
2023-05-15T06:47:08.274Z,100322.28
2023-05-15T06:49:34.946Z,100315.06
2023-05-15T06:52:01.556Z,100308.78
2023-05-15T06:54:28.109Z,100319.16
2023-05-15T06:56:54.681Z,100319.53
2023-05-15T06:59:21.440Z,100309.22
2023-05-15T07:01:48.171Z,100299.00
2023-05-15T07:04:14.784Z,100309.41
2023-05-15T07:06:41.411Z,100306.59
2023-05-15T07:09:08.046Z,100306.56
2023-05-15T07:11:37.405Z,100306.72
2023-05-15T07:14:04.743Z,100308.66
2023-05-15T07:16:31.404Z,100302.94
2023-05-15T07:18:58.042Z,100299.91
2023-05-15T07:21:24.637Z,100308.97
2023-05-15T07:23:51.341Z,100305.75
2023-05-15T07:26:28.696Z,100307.41
2023-05-15T07:28:59.431Z,100308.53
2023-05-15T07:31:26.141Z,100310.06
2023-05-15T07:33:52.820Z,100310.81
2023-05-15T07:36:19.423Z,100309.16
2023-05-15T07:38:46.027Z,100306.47
2023-05-15T07:41:12.610Z,100321.59
2023-05-15T07:43:39.216Z,100323.28
2023-05-15T07:46:05.884Z,100305.78
2023-05-15T07:48:32.531Z,100307.75
2023-05-15T07:50:59.102Z,100315.03
2023-05-15T07:53:25.779Z,100310.56
2023-05-15T07:55:52.463Z,100304.50
2023-05-15T07:58:19.047Z,100304.72
2023-05-15T08:00:45.786Z,100305.25
2023-05-15T08:03:12.433Z,100303.47
2023-05-15T08:05:39.230Z,100293.50
2023-05-15T08:08:06.124Z,100299.97
2023-05-15T08:10:32.700Z,100306.47
2023-05-15T08:12:59.399Z,100309.91
2023-05-15T08:15:26.235Z,100291.19
2023-05-15T08:17:53.209Z,100289.91
2023-05-15T08:20:19.899Z,100279.94
2023-05-15T08:22:46.526Z,100285.28
2023-05-15T08:25:13.398Z,100284.44
2023-05-15T08:27:40.025Z,100278.38
2023-05-15T08:30:07.372Z,100285.34
2023-05-15T08:32:33.995Z,100268.16
2023-05-15T08:35:00.697Z,100264.09
2023-05-15T08:37:27.265Z,100264.84
2023-05-15T08:39:54.333Z,100267.81
2023-05-15T08:42:35.694Z,100263.34
2023-05-15T08:45:03.187Z,100285.00
2023-05-15T08:47:31.736Z,100275.34
2023-05-15T08:50:10.187Z,100294.00
2023-05-15T08:52:36.964Z,100285.06
2023-05-15T08:55:04.432Z,100290.09
2023-05-15T08:57:33.212Z,100296.41
2023-05-15T09:00:00.688Z,100300.72
2023-05-15T09:02:27.324Z,100304.38
2023-05-15T09:04:54.069Z,100316.81
2023-05-15T09:07:21.021Z,100320.22
2023-05-15T09:09:47.915Z,100305.06
2023-05-15T09:12:19.038Z,100314.69
2023-05-15T09:14:45.802Z,100319.28
2023-05-15T09:17:12.775Z,100329.00
2023-05-15T09:19:42.653Z,100319.06
2023-05-15T09:22:17.752Z,100324.28
2023-05-15T09:24:48.158Z,100324.78
2023-05-15T09:27:15.024Z,100324.44
2023-05-15T09:29:41.712Z,100315.44
2023-05-15T09:32:10.359Z,100318.56
2023-05-15T09:34:39.953Z,100329.88
2023-05-15T09:37:09.470Z,100319.63
2023-05-15T09:39:43.761Z,100333.25
2023-05-15T09:42:12.420Z,100326.19
2023-05-15T09:44:46.429Z,100322.03
2023-05-15T09:47:14.361Z,100330.63
2023-05-15T09:49:44.806Z,100338.53
2023-05-15T09:52:11.890Z,100336.09
2023-05-15T09:54:38.837Z,100339.91
2023-05-15T09:57:13.052Z,100337.69
2023-05-15T09:59:47.916Z,100336.03
2023-05-15T10:02:23.545Z,100330.44
2023-05-15T10:04:56.039Z,100335.88
2023-05-15T10:07:32.609Z,100327.09
2023-05-15T10:10:00.480Z,100330.16
2023-05-15T10:12:28.213Z,100321.88
2023-05-15T10:14:57.252Z,100321.25
2023-05-15T10:17:24.441Z,100316.59
2023-05-15T10:19:58.261Z,100311.78
2023-05-15T10:22:29.255Z,100309.88
2023-05-15T10:25:03.875Z,100308.22
2023-05-15T10:27:32.322Z,100304.28
2023-05-15T10:29:59.849Z,100312.19
2023-05-15T10:32:27.561Z,100317.28
2023-05-15T10:34:56.053Z,100315.41
2023-05-15T10:37:23.004Z,100313.78
2023-05-15T10:39:51.309Z,100319.84
2023-05-15T10:42:19.049Z,100317.97
2023-05-15T10:44:45.614Z,100309.84
2023-05-15T10:47:12.400Z,100307.91
2023-05-15T10:49:39.118Z,100309.25
2023-05-15T10:52:06.234Z,100302.53
2023-05-15T10:54:32.884Z,100307.00
2023-05-15T10:56:59.586Z,100295.50
2023-05-15T10:59:32.966Z,100290.69
2023-05-15T11:02:29.497Z,100282.69
2023-05-15T11:05:01.293Z,100277.66
2023-05-15T11:07:32.767Z,100268.53
2023-05-15T11:09:59.284Z,100264.03
2023-05-15T11:12:25.885Z,100266.06
2023-05-15T11:14:52.445Z,100259.16
2023-05-15T11:17:19.073Z,100260.66
2023-05-15T11:19:51.888Z,100253.03
2023-05-15T11:22:19.759Z,100254.53
2023-05-15T11:25:06.157Z,100245.09
2023-05-15T11:27:38.147Z,100240.28
2023-05-15T11:30:12.783Z,100242.13
2023-05-15T11:33:00.589Z,100245.41
2023-05-15T11:35:34.300Z,100256.16
2023-05-15T11:38:09.898Z,100255.66
2023-05-15T11:41:02.815Z,100250.19
2023-05-15T11:43:35.028Z,100240.69
2023-05-15T11:46:10.433Z,100236.19
2023-05-15T11:48:41.721Z,100243.31
2023-05-15T11:51:25.118Z,100233.00
2023-05-15T11:53:53.870Z,100241.44
2023-05-15T11:56:22.781Z,100249.78
2023-05-15T11:58:55.553Z,100239.94
2023-05-15T12:01:22.254Z,100238.94
2023-05-15T12:03:50.064Z,100237.66
2023-05-15T12:06:17.405Z,100236.75
2023-05-15T12:08:45.062Z,100229.84
2023-05-15T12:11:12.454Z,100224.09
2023-05-15T12:13:39.128Z,100212.56
2023-05-15T12:16:06.327Z,100213.13
2023-05-15T12:18:33.609Z,100222.66
2023-05-15T12:21:00.574Z,100204.50
2023-05-15T12:23:28.469Z,100221.63
2023-05-15T12:26:00.961Z,100206.03
2023-05-15T12:28:28.958Z,100208.34
2023-05-15T12:31:11.955Z,100203.34
2023-05-15T12:33:38.843Z,100192.16
2023-05-15T12:36:06.243Z,100196.00
2023-05-15T12:38:35.025Z,100189.75
2023-05-15T12:41:01.732Z,100191.00
2023-05-15T12:43:28.507Z,100186.22
2023-05-15T12:45:57.031Z,100183.81
2023-05-15T12:48:23.668Z,100183.50
2023-05-15T12:50:50.319Z,100177.34
2023-05-15T12:53:17.388Z,100179.88
2023-05-15T12:55:46.238Z,100185.63
2023-05-15T12:58:15.183Z,100181.44
2023-05-15T13:00:43.521Z,100181.94
2023-05-15T13:03:11.339Z,100184.88
2023-05-15T13:05:38.750Z,100180.13
2023-05-15T13:08:07.607Z,100183.47
2023-05-15T13:10:36.274Z,100185.97
2023-05-15T13:13:03.194Z,100174.06
2023-05-15T13:15:36.478Z,100170.25
2023-05-15T13:18:04.682Z,100166.06
2023-05-15T13:20:40.705Z,100162.50
2023-05-15T13:23:08.762Z,100156.69
2023-05-15T13:25:35.978Z,100151.06
2023-05-15T13:28:05.352Z,100161.66
2023-05-15T13:30:34.100Z,100149.88
2023-05-15T13:33:01.251Z,100158.09
2023-05-15T13:35:28.466Z,100145.59
2023-05-15T13:37:55.421Z,100163.31
2023-05-15T13:40:22.078Z,100162.72
2023-05-15T13:42:49.065Z,100157.00
2023-05-15T13:45:16.537Z,100156.31
2023-05-15T13:47:43.850Z,100152.63
2023-05-15T13:50:13.101Z,100145.94
2023-05-15T13:52:41.096Z,100141.66
2023-05-15T13:55:09.847Z,100139.38
2023-05-15T13:57:40.655Z,100137.38
2023-05-15T14:00:10.773Z,100144.63
2023-05-15T14:02:37.422Z,100134.25
2023-05-15T14:05:05.182Z,100124.72
2023-05-15T14:07:32.126Z,100137.59
2023-05-15T14:09:58.835Z,100136.16
2023-05-15T14:12:25.435Z,100131.63
2023-05-15T14:14:52.069Z,100122.00
2023-05-15T14:17:18.637Z,100125.22
2023-05-15T14:19:45.253Z,100121.41
2023-05-15T14:22:12.237Z,100110.22
2023-05-15T14:24:38.807Z,100119.94
2023-05-15T14:27:05.779Z,100106.97
2023-05-15T14:29:32.428Z,100119.50
2023-05-15T14:31:59.119Z,100112.66
2023-05-15T14:34:25.999Z,100126.63
2023-05-15T14:36:52.762Z,100127.97
2023-05-15T14:39:19.550Z,100115.06
2023-05-15T14:41:47.821Z,100122.13
2023-05-15T14:44:14.719Z,100124.50
2023-05-15T14:46:43.045Z,100125.63
2023-05-15T14:49:09.565Z,100124.13
2023-05-15T14:51:36.086Z,100144.25
2023-05-15T14:54:04.417Z,100131.31
2023-05-15T14:56:31.411Z,100139.97
2023-05-15T14:58:57.955Z,100143.91
2023-05-15T15:01:24.584Z,100140.56
2023-05-15T15:03:51.229Z,100142.75
2023-05-15T15:06:18.345Z,100142.09
2023-05-15T15:08:44.941Z,100142.59
2023-05-15T15:11:11.548Z,100139.16
2023-05-15T15:13:38.130Z,100138.50
2023-05-15T15:16:04.971Z,100140.53
2023-05-15T15:18:31.754Z,100135.53
2023-05-15T15:20:58.455Z,100144.00
2023-05-15T15:23:25.119Z,100140.44
2023-05-15T15:25:51.652Z,100149.81
2023-05-15T15:28:18.275Z,100147.53
2023-05-15T15:30:44.879Z,100135.88
2023-05-15T15:33:11.568Z,100139.97
2023-05-15T15:35:38.335Z,100145.13
2023-05-15T15:38:05.582Z,100152.75
2023-05-15T15:40:32.132Z,100145.72
2023-05-15T15:42:58.699Z,100148.44
2023-05-15T15:45:25.378Z,100148.19
2023-05-15T15:47:52.015Z,100144.50
2023-05-15T15:50:18.791Z,100135.25
2023-05-15T15:52:45.325Z,100143.28
2023-05-15T15:55:11.869Z,100130.94
2023-05-15T15:57:38.513Z,100134.63
2023-05-15T16:00:08.185Z,100133.31
2023-05-15T16:02:35.262Z,100135.00
2023-05-15T16:05:02.455Z,100135.81
2023-05-15T16:07:29.397Z,100130.09
2023-05-15T16:10:04.222Z,100128.31
2023-05-15T16:12:39.017Z,100130.69
2023-05-15T16:15:21.073Z,100130.56
2023-05-15T16:17:52.497Z,100129.97
2023-05-15T16:20:19.721Z,100127.25
2023-05-15T16:22:46.279Z,100123.78
2023-05-15T16:25:12.950Z,100122.38
2023-05-15T16:27:39.519Z,100119.84
2023-05-15T16:30:06.691Z,100116.53
2023-05-15T16:32:34.027Z,100109.22
2023-05-15T16:35:03.023Z,100104.38
2023-05-15T16:37:29.982Z,100101.03
2023-05-15T16:39:56.785Z,100098.91
2023-05-15T16:42:23.445Z,100104.00
2023-05-15T16:44:50.001Z,100100.22
2023-05-15T16:47:16.583Z,100100.91
2023-05-15T16:49:44.571Z,100099.91
2023-05-15T16:52:12.057Z,100098.97
2023-05-15T16:54:41.540Z,100102.88
2023-05-15T16:57:08.221Z,100096.50
2023-05-15T16:59:35.059Z,100091.16
2023-05-15T17:02:01.813Z,100096.63
2023-05-15T17:04:31.436Z,100091.75
2023-05-15T17:06:59.408Z,100087.72
2023-05-15T17:09:26.365Z,100092.84
2023-05-15T17:11:52.967Z,100090.91
2023-05-15T17:14:19.588Z,100088.53
2023-05-15T17:16:46.266Z,100078.41
2023-05-15T17:19:13.137Z,100082.78
2023-05-15T17:21:39.854Z,100069.56
2023-05-15T17:24:06.823Z,100075.63
2023-05-15T17:26:33.455Z,100075.25
2023-05-15T17:29:00.713Z,100078.44
2023-05-15T17:31:29.217Z,100069.38
2023-05-15T17:33:55.744Z,100072.47
2023-05-15T17:36:22.310Z,100079.44
2023-05-15T17:38:48.872Z,100078.59
2023-05-15T17:41:15.682Z,100075.16
2023-05-15T17:43:42.289Z,100079.22
2023-05-15T17:46:08.949Z,100083.06
2023-05-15T17:48:36.097Z,100076.47
2023-05-15T17:51:02.763Z,100068.59
2023-05-15T17:53:29.353Z,100062.16
2023-05-15T17:55:55.963Z,100066.41
2023-05-15T17:58:22.698Z,100060.19
2023-05-15T18:00:51.057Z,100070.34
2023-05-15T18:03:17.928Z,100064.47
2023-05-15T18:05:48.009Z,100085.41
2023-05-15T18:08:14.756Z,100070.84
2023-05-15T18:10:41.350Z,100074.31
2023-05-15T18:13:07.941Z,100083.81
2023-05-15T18:15:37.699Z,100080.50
2023-05-15T18:18:04.651Z,100051.28
2023-05-15T18:20:31.504Z,100044.84
2023-05-15T18:22:58.199Z,100068.91
2023-05-15T18:25:25.066Z,100055.97
2023-05-15T18:27:52.173Z,100069.88
2023-05-15T18:30:19.452Z,100036.28
2023-05-15T18:32:46.065Z,100047.38
2023-05-15T18:35:13.127Z,100057.69
2023-05-15T18:37:40.154Z,100053.63
2023-05-15T18:40:07.898Z,100028.78
2023-05-15T18:42:34.732Z,100028.63
2023-05-15T18:45:02.186Z,100064.47
2023-05-15T18:47:29.167Z,100068.69
2023-05-15T18:49:55.917Z,100015.31
2023-05-15T18:52:23.142Z,100063.75
2023-05-15T18:54:49.769Z,100053.72
2023-05-15T18:57:16.597Z,100087.41
2023-05-15T18:59:44.483Z,100068.00
2023-05-15T19:02:11.142Z,100089.41
2023-05-15T19:04:37.811Z,100039.69
2023-05-15T19:07:04.670Z,100093.84
2023-05-15T19:09:32.699Z,100081.34
2023-05-15T19:12:00.156Z,100077.00
2023-05-15T19:14:26.962Z,100100.44
2023-05-15T19:16:54.100Z,100064.09
2023-05-15T19:19:20.843Z,100101.59
2023-05-15T19:21:47.694Z,100099.06
2023-05-15T19:24:14.593Z,100064.59
2023-05-15T19:26:41.558Z,100110.22
2023-05-15T19:29:08.516Z,100089.34
2023-05-15T19:31:35.380Z,100097.50
2023-05-15T19:34:02.055Z,100056.91
2023-05-15T19:36:28.802Z,100094.34
2023-05-15T19:38:55.577Z,100112.97
2023-05-15T19:41:22.751Z,100069.88
2023-05-15T19:43:51.072Z,100101.88
2023-05-15T19:46:18.674Z,100082.44
2023-05-15T19:48:45.628Z,100071.13
2023-05-15T19:51:12.768Z,100084.75
2023-05-15T19:53:39.590Z,100090.81
2023-05-15T19:56:06.450Z,100075.34
2023-05-15T19:58:33.105Z,100102.72
2023-05-15T20:00:59.766Z,100115.94
2023-05-15T20:03:32.536Z,100118.25
2023-05-15T20:06:03.220Z,100090.63
2023-05-15T20:08:30.246Z,100104.22
2023-05-15T20:10:57.639Z,100104.84
2023-05-15T20:13:24.589Z,100100.91
2023-05-15T20:15:58.200Z,100120.97
2023-05-15T20:18:26.319Z,100067.34
2023-05-15T20:20:55.909Z,100084.94
2023-05-15T20:23:22.752Z,100118.00
2023-05-15T20:25:50.522Z,100111.94
2023-05-15T20:28:17.877Z,100104.19
2023-05-15T20:30:47.600Z,100074.03
2023-05-15T20:33:14.696Z,100056.88
2023-05-15T20:35:42.806Z,100060.25
2023-05-15T20:38:10.451Z,100043.09
2023-05-15T20:40:37.549Z,100051.03
2023-05-15T20:43:04.524Z,100058.75
2023-05-15T20:45:32.435Z,100068.16
2023-05-15T20:47:59.277Z,100067.09
2023-05-15T20:50:26.280Z,100054.31
2023-05-15T20:52:55.979Z,100062.47
2023-05-15T20:55:22.761Z,100104.53
2023-05-15T20:57:50.614Z,100063.75
2023-05-15T21:00:18.239Z,100088.63
2023-05-15T21:02:46.065Z,100093.03
2023-05-15T21:05:12.907Z,100087.78
2023-05-15T21:07:39.613Z,100098.03
2023-05-15T21:10:07.046Z,100104.91
2023-05-15T21:12:34.459Z,100108.06
2023-05-15T21:15:01.952Z,100107.59
2023-05-15T21:17:28.843Z,100086.28
2023-05-15T21:19:57.651Z,100095.91
2023-05-15T21:22:24.447Z,100091.13
2023-05-15T21:24:51.252Z,100070.38
2023-05-15T21:27:17.876Z,100084.22
2023-05-15T21:29:44.450Z,100073.94
2023-05-15T21:32:11.677Z,100096.13
2023-05-15T21:34:39.358Z,100086.97
2023-05-15T21:37:06.025Z,100071.06
2023-05-15T21:39:32.630Z,100069.81
2023-05-15T21:41:59.765Z,100071.06
2023-05-15T21:44:26.451Z,100071.47
2023-05-15T21:46:53.416Z,100069.53
2023-05-15T21:49:20.035Z,100067.00
2023-05-15T21:51:46.786Z,100069.72
2023-05-15T21:54:13.474Z,100054.69
2023-05-15T21:56:41.081Z,100055.97
2023-05-15T21:59:07.700Z,100076.25
2023-05-15T22:01:34.621Z,100080.69
2023-05-15T22:04:01.230Z,100056.84
2023-05-15T22:06:27.932Z,100069.63
2023-05-15T22:08:54.520Z,100059.78
2023-05-15T22:11:21.311Z,100046.16
2023-05-15T22:13:47.918Z,100070.22
2023-05-15T22:16:15.189Z,100063.13
2023-05-15T22:18:45.379Z,100042.56
2023-05-15T22:21:12.155Z,100062.66
2023-05-15T22:23:38.794Z,100052.63
2023-05-15T22:26:05.630Z,100057.66
2023-05-15T22:28:32.279Z,100042.56
2023-05-15T22:30:59.081Z,100047.78
2023-05-15T22:33:25.795Z,100050.50
2023-05-15T22:35:53.204Z,100054.22
2023-05-15T22:38:20.648Z,100055.22
2023-05-15T22:40:53.741Z,100054.81
2023-05-15T22:43:22.091Z,100041.44
2023-05-15T22:45:48.687Z,100053.56
2023-05-15T22:48:15.508Z,100034.94
2023-05-15T22:50:43.727Z,100001.25
2023-05-15T22:53:10.411Z,100047.88
2023-05-15T22:55:37.298Z,100039.72
2023-05-15T22:58:04.212Z,100046.59
2023-05-15T23:00:31.148Z,100033.47
2023-05-15T23:02:58.128Z,100036.19
2023-05-15T23:05:25.246Z,100036.22
2023-05-15T23:07:52.652Z,100039.56
2023-05-15T23:10:19.413Z,100023.03
2023-05-15T23:12:46.335Z,100043.34
2023-05-15T23:15:13.086Z,100042.28
2023-05-15T23:17:40.544Z,100037.47
2023-05-15T23:20:10.445Z,100035.03
2023-05-15T23:22:37.351Z,100030.44
2023-05-15T23:25:04.265Z,100040.09
2023-05-15T23:27:30.994Z,100025.69
2023-05-15T23:29:57.629Z,100022.97
2023-05-15T23:32:24.392Z,100035.78
2023-05-15T23:34:52.165Z,100030.16
2023-05-15T23:37:18.941Z,100036.63
2023-05-15T23:39:45.642Z,100028.06
2023-05-15T23:42:12.536Z,100032.66
2023-05-15T23:44:39.128Z,100017.41
2023-05-15T23:47:06.612Z,100015.72
2023-05-15T23:49:33.649Z,100012.19
2023-05-15T23:52:00.594Z,100023.47
2023-05-15T23:54:27.952Z,100028.50
2023-05-15T23:56:54.867Z,100000.50
2023-05-15T23:59:21.641Z,100017.00
